Time;durP1;ratioP1;P1;durP2;ratioP2;P2;SDS_P1;SDS_P2;PMS_P1;PMS_P2;Temp;Humidity;BMP_temperature;BMP_pressure;BME280_temperature;BME280_humidity;BME280_pressure;Samples;Min_cycle;Max_cycle;Signal;HPM_P1;HPM_P2
2023/02/01 00:00:04;;;;;;;;;11.25;10.50;;;;;-147.17;100.00;-15917.19;5005479;28;51044;-71
2023/02/01 00:02:29;;;;;;;;;11.00;10.50;;;;;-147.17;100.00;-15917.19;4994346;28;51942;-71
2023/02/01 00:04:55;;;;;;;;;8.75;8.25;;;;;-147.17;100.00;-15917.19;4997298;28;51146;-71
2023/02/01 00:07:20;;;;;;;;;9.75;9.00;;;;;-147.17;100.00;-15917.19;4995483;28;51815;-68
2023/02/01 00:09:46;;;;;;;;;7.00;7.00;;;;;-147.17;100.00;-15917.19;4994694;28;51007;-71
2023/02/01 00:12:11;;;;;;;;;10.00;10.00;;;;;-147.17;100.00;-15917.19;5005961;28;52448;-68
2023/02/01 00:14:39;;;;;;;;;9.00;8.75;;;;;-147.17;100.00;-15917.19;4998967;28;51213;-70
2023/02/01 00:17:06;;;;;;;;;10.50;8.50;;;;;-147.17;100.00;-15917.19;4994273;28;51311;-71
2023/02/01 00:19:32;;;;;;;;;13.25;10.00;;;;;-147.17;100.00;-15917.19;4994029;28;51369;-70
2023/02/01 00:21:57;;;;;;;;;14.50;11.00;;;;;-147.17;100.00;-15917.19;5002357;28;52457;-70
2023/02/01 00:24:23;;;;;;;;;12.25;12.25;;;;;-147.17;100.00;-15917.19;4993614;28;51092;-70
2023/02/01 00:26:48;;;;;;;;;12.75;9.75;;;;;-147.17;100.00;-15917.19;4994295;28;51272;-71
2023/02/01 00:29:17;;;;;;;;;10.00;9.50;;;;;-147.17;100.00;-15917.19;4993795;28;50978;-70
2023/02/01 00:31:43;;;;;;;;;10.00;10.00;;;;;-147.17;100.00;-15917.19;4993701;28;52062;-70
2023/02/01 00:34:12;;;;;;;;;4.50;4.50;;;;;-147.17;100.00;-15917.19;4993655;28;51319;-67
2023/02/01 00:36:37;;;;;;;;;7.75;7.00;;;;;-147.17;100.00;-15917.19;4993977;28;51039;-69
2023/02/01 00:39:03;;;;;;;;;12.75;10.00;;;;;-147.17;100.00;-15917.19;4993747;28;51163;-70
2023/02/01 00:41:28;;;;;;;;;20.75;19.50;;;;;-147.17;100.00;-15917.19;4993746;28;51656;-69
2023/02/01 00:43:54;;;;;;;;;11.00;10.00;;;;;-147.17;100.00;-15917.19;4997949;28;51198;-68
2023/02/01 00:46:21;;;;;;;;;10.25;9.00;;;;;-147.17;100.00;-15917.19;4980939;28;51287;-67
2023/02/01 00:48:46;;;;;;;;;8.75;8.75;;;;;-147.17;100.00;-15917.19;4998832;28;51005;-66
2023/02/01 00:51:14;;;;;;;;;10.25;9.00;;;;;-147.17;100.00;-15917.19;4997730;28;52318;-67
2023/02/01 00:53:40;;;;;;;;;10.25;10.25;;;;;-147.17;100.00;-15917.19;4993883;28;51181;-68
2023/02/01 00:56:06;;;;;;;;;11.00;10.00;;;;;-147.17;100.00;-15917.19;4994938;28;51152;-68
2023/02/01 00:58:32;;;;;;;;;9.50;9.00;;;;;-147.17;100.00;-15917.19;4995922;28;51308;-68
2023/02/01 01:01:23;;;;;;;;;15.50;14.25;;;;;-147.17;100.00;-15917.19;4977501;28;50950;-68
2023/02/01 01:03:53;;;;;;;;;10.50;9.00;;;;;-147.17;100.00;-15917.19;4993853;28;51114;-70
2023/02/01 01:06:25;;;;;;;;;13.00;13.00;;;;;-147.17;100.00;-15917.19;4993430;28;51167;-68
2023/02/01 01:08:53;;;;;;;;;7.00;7.00;;;;;-147.17;100.00;-15917.19;4984010;28;51302;-68
2023/02/01 01:11:22;;;;;;;;;7.75;7.25;;;;;-147.17;100.00;-15917.19;5003212;28;53075;-69
2023/02/01 01:13:49;;;;;;;;;7.50;6.75;;;;;-147.17;100.00;-15917.19;4993433;28;51251;-67
2023/02/01 01:16:14;;;;;;;;;6.75;5.50;;;;;-147.17;100.00;-15917.19;4993543;28;51063;-67
2023/02/01 01:18:41;;;;;;;;;7.00;7.00;;;;;-147.17;100.00;-15917.19;4993567;28;51089;-68
2023/02/01 01:21:08;;;;;;;;;8.00;8.00;;;;;-147.17;100.00;-15917.19;4993132;28;51186;-68
2023/02/01 01:23:34;;;;;;;;;6.50;5.00;;;;;-147.17;100.00;-15917.19;4993266;28;51488;-67
2023/02/01 01:26:00;;;;;;;;;6.25;5.50;;;;;-147.17;100.00;-15917.19;4993039;28;51082;-68
2023/02/01 01:28:25;;;;;;;;;10.00;8.25;;;;;-147.17;100.00;-15917.19;4975158;28;51327;-67
2023/02/01 01:30:50;;;;;;;;;8.50;8.00;;;;;-147.17;100.00;-15917.19;4981811;28;51282;-69
2023/02/01 01:33:16;;;;;;;;;8.00;7.25;;;;;-147.17;100.00;-15917.19;4993686;28;51078;-69
2023/02/01 01:35:42;;;;;;;;;8.75;7.50;;;;;-147.17;100.00;-15917.19;4993205;28;50990;-70
2023/02/01 01:38:10;;;;;;;;;11.00;8.00;;;;;-147.17;100.00;-15917.19;4975537;28;51067;-70
2023/02/01 01:40:35;;;;;;;;;10.00;7.25;;;;;-147.17;100.00;-15917.19;4992458;28;52145;-69
2023/02/01 01:43:00;;;;;;;;;9.50;8.00;;;;;-147.17;100.00;-15917.19;4993057;28;50956;-69
2023/02/01 01:45:27;;;;;;;;;7.50;7.00;;;;;-147.17;100.00;-15917.19;4993202;28;51386;-69
2023/02/01 01:50:23;;;;;;;;;9.00;7.25;;;;;-147.17;100.00;-15917.19;4991308;28;80796;-67
2023/02/01 01:52:51;;;;;;;;;9.50;8.00;;;;;-147.17;100.00;-15917.19;4991604;28;51080;-68
2023/02/01 01:55:20;;;;;;;;;4.75;4.00;;;;;-147.17;100.00;-15917.19;4998727;28;51240;-68
2023/02/01 01:57:55;;;;;;;;;6.00;5.25;;;;;-147.17;100.00;-15917.19;4996304;28;51256;-69
2023/02/01 02:00:21;;;;;;;;;6.75;4.25;;;;;-147.17;100.00;-15917.19;4986948;28;51195;-68
2023/02/01 02:02:52;;;;;;;;;4.50;4.50;;;;;-147.17;100.00;-15917.19;4993529;28;51066;-68
2023/02/01 02:05:19;;;;;;;;;4.25;4.25;;;;;-147.17;100.00;-15917.19;4993868;28;50956;-69
2023/02/01 02:07:50;;;;;;;;;6.50;5.25;;;;;-147.17;100.00;-15917.19;4990130;28;51132;-69
2023/02/01 02:10:17;;;;;;;;;5.25;5.25;;;;;-147.17;100.00;-15917.19;4995377;28;52010;-67
2023/02/01 02:12:47;;;;;;;;;4.50;4.00;;;;;-147.17;100.00;-15917.19;4997478;28;51138;-69
2023/02/01 02:15:16;;;;;;;;;7.00;5.00;;;;;-147.17;100.00;-15917.19;4993734;28;51141;-66
2023/02/01 02:17:56;;;;;;;;;7.00;5.75;;;;;-147.17;100.00;-15917.19;4983233;28;50894;-67
2023/02/01 02:20:53;;;;;;;;;6.50;5.75;;;;;-147.17;100.00;-15917.19;4994101;28;51068;-67
2023/02/01 02:23:47;;;;;;;;;4.25;4.00;;;;;-147.17;100.00;-15917.19;4988136;28;51261;-67
2023/02/01 02:26:31;;;;;;;;;4.50;2.75;;;;;-147.17;100.00;-15917.19;4991264;28;51544;-68
2023/02/01 02:29:19;;;;;;;;;8.50;4.50;;;;;-147.17;100.00;-15917.19;4994496;28;51281;-66
2023/02/01 02:32:06;;;;;;;;;3.00;2.00;;;;;-147.17;100.00;-15917.19;4993561;28;51021;-68
2023/02/01 02:34:41;;;;;;;;;3.00;3.00;;;;;-147.17;100.00;-15917.19;4983739;28;51081;-67
2023/02/01 02:37:13;;;;;;;;;3.00;3.00;;;;;-147.17;100.00;-15917.19;4990453;28;51053;-67
2023/02/01 02:39:49;;;;;;;;;4.00;3.00;;;;;-147.17;100.00;-15917.19;4989177;28;51279;-66
2023/02/01 02:48:25;;;;;;;;;5.25;2.25;;;;;-147.17;100.00;-15917.19;4993256;28;51025;-69
2023/02/01 03:05:05;;;;;;;;;3.75;3.75;;;;;-147.17;100.00;-15917.19;4977780;28;51002;-70
2023/02/01 03:08:02;;;;;;;;;2.50;2.00;;;;;-147.17;100.00;-15917.19;4974853;28;51144;-69
2023/02/01 03:10:40;;;;;;;;;3.00;2.00;;;;;-147.17;100.00;-15917.19;4983813;28;51058;-69
2023/02/01 03:13:15;;;;;;;;;4.25;4.00;;;;;-147.17;100.00;-15917.19;4997381;28;51073;-69
2023/02/01 03:16:02;;;;;;;;;4.75;4.25;;;;;-147.17;100.00;-15917.19;4992533;28;51193;-69
2023/02/01 03:18:56;;;;;;;;;4.00;2.25;;;;;-147.17;100.00;-15917.19;4993166;28;51141;-69
2023/02/01 03:21:26;;;;;;;;;3.25;3.00;;;;;-147.17;100.00;-15917.19;4992268;28;51184;-69
2023/02/01 03:23:55;;;;;;;;;6.50;3.00;;;;;-147.17;100.00;-15917.19;4982743;28;51225;-69
2023/02/01 03:26:25;;;;;;;;;2.00;2.00;;;;;-147.17;100.00;-15917.19;4991873;28;51611;-68
2023/02/01 03:29:08;;;;;;;;;3.50;3.50;;;;;-147.17;100.00;-15917.19;4991923;28;51240;-69
2023/02/01 03:31:34;;;;;;;;;3.00;2.50;;;;;-147.17;100.00;-15917.19;4985730;28;51028;-68
2023/02/01 03:33:59;;;;;;;;;3.25;2.50;;;;;-147.17;100.00;-15917.19;4974857;28;51199;-68
2023/02/01 03:36:31;;;;;;;;;4.75;4.50;;;;;-147.17;100.00;-15917.19;4991969;28;52011;-68
2023/02/01 03:39:06;;;;;;;;;3.00;3.00;;;;;-147.17;100.00;-15917.19;4991747;28;51185;-68
2023/02/01 03:42:01;;;;;;;;;7.75;3.25;;;;;-147.17;100.00;-15917.19;4991198;28;51194;-68
2023/02/01 03:44:27;;;;;;;;;6.00;4.00;;;;;-147.17;100.00;-15917.19;4990035;28;51391;-67
2023/02/01 03:46:56;;;;;;;;;4.00;3.75;;;;;-147.17;100.00;-15917.19;4991097;28;51969;-69
2023/02/01 03:49:37;;;;;;;;;2.67;2.00;;;;;-147.17;100.00;-15917.19;4991535;28;51103;-68
2023/02/01 03:52:06;;;;;;;;;2.00;2.00;;;;;-147.17;100.00;-15917.19;4991269;28;51039;-67
2023/02/01 03:54:33;;;;;;;;;5.50;3.00;;;;;-147.17;100.00;-15917.19;4990830;28;51235;-67
2023/02/01 03:57:03;;;;;;;;;3.50;3.00;;;;;-147.17;100.00;-15917.19;4991250;28;51829;-67
2023/02/01 03:59:28;;;;;;;;;5.25;4.00;;;;;-147.17;100.00;-15917.19;4999514;28;51121;-68
2023/02/01 04:01:53;;;;;;;;;4.00;2.50;;;;;-147.17;100.00;-15917.19;4995456;28;51090;-69
2023/02/01 04:04:21;;;;;;;;;3.00;2.00;;;;;-147.17;100.00;-15917.19;4993434;28;51113;-68
2023/02/01 04:06:50;;;;;;;;;4.75;4.50;;;;;-147.17;100.00;-15917.19;4995052;28;51063;-68
2023/02/01 04:09:16;;;;;;;;;3.50;2.75;;;;;-147.17;100.00;-15917.19;4996706;28;51178;-69
2023/02/01 04:11:41;;;;;;;;;4.25;3.75;;;;;-147.17;100.00;-15917.19;4994330;28;51292;-69
2023/02/01 04:14:07;;;;;;;;;4.50;3.50;;;;;-147.17;100.00;-15917.19;4995784;28;50999;-69
2023/02/01 04:16:32;;;;;;;;;5.50;3.00;;;;;-147.17;100.00;-15917.19;4978354;28;51482;-69
2023/02/01 04:18:58;;;;;;;;;4.25;3.00;;;;;-147.17;100.00;-15917.19;4995879;28;51043;-69
2023/02/01 04:21:26;;;;;;;;;3.50;2.00;;;;;-147.17;100.00;-15917.19;4989185;28;51167;-70
2023/02/01 04:23:53;;;;;;;;;5.00;2.75;;;;;-147.17;100.00;-15917.19;4981693;28;50959;-69
2023/02/01 04:26:19;;;;;;;;;2.00;2.00;;;;;-147.17;100.00;-15917.19;4997517;28;53003;-69
2023/02/01 04:28:47;;;;;;;;;2.00;2.00;;;;;-147.17;100.00;-15917.19;4980726;28;51082;-69
2023/02/01 04:31:14;;;;;;;;;2.75;2.00;;;;;-147.17;100.00;-15917.19;4995735;28;51044;-69
2023/02/01 04:33:39;;;;;;;;;3.00;1.75;;;;;-147.17;100.00;-15917.19;4995982;28;50941;-69
2023/02/01 04:36:04;;;;;;;;;2.00;2.00;;;;;-147.17;100.00;-15917.19;4994922;28;51062;-70
2023/02/01 04:38:31;;;;;;;;;3.33;3.00;;;;;-147.17;100.00;-15917.19;4976755;28;51072;-69
2023/02/01 04:40:57;;;;;;;;;2.75;2.75;;;;;-147.17;100.00;-15917.19;4994558;28;50982;-70
2023/02/01 04:43:22;;;;;;;;;1.00;1.00;;;;;-147.17;100.00;-15917.19;4982901;28;50918;-69
2023/02/01 04:45:49;;;;;;;;;7.33;4.00;;;;;-147.17;100.00;-15917.19;4991686;28;51795;-69
2023/02/01 04:48:15;;;;;;;;;2.00;1.67;;;;;-147.17;100.00;-15917.19;4999917;28;51611;-70
2023/02/01 04:50:40;;;;;;;;;5.33;2.00;;;;;-147.17;100.00;-15917.19;4996596;28;51168;-70
2023/02/01 04:53:05;;;;;;;;;9.75;4.00;;;;;-147.17;100.00;-15917.19;4994468;28;51205;-69
2023/02/01 04:55:31;;;;;;;;;3.00;2.00;;;;;-147.17;100.00;-15917.19;4993994;28;51061;-70
2023/02/01 04:57:56;;;;;;;;;3.50;3.25;;;;;-147.17;100.00;-15917.19;4994315;28;51141;-69
2023/02/01 05:00:22;;;;;;;;;3.00;3.00;;;;;-147.17;100.00;-15917.19;5005533;28;51026;-69
2023/02/01 05:02:47;;;;;;;;;2.00;2.00;;;;;-147.17;100.00;-15917.19;4994755;28;51188;-68
2023/02/01 05:05:14;;;;;;;;;3.75;2.00;;;;;-147.17;100.00;-15917.19;4994942;28;51540;-68
2023/02/01 05:07:39;;;;;;;;;2.67;2.00;;;;;-147.17;100.00;-15917.19;4978998;28;50985;-70
2023/02/01 05:10:05;;;;;;;;;4.25;3.00;;;;;-147.17;100.00;-15917.19;4996466;28;51779;-69
2023/02/01 05:15:15;;;;;;;;;3.00;2.25;;;;;-147.17;100.00;-15917.19;4979802;28;51430;-69
2023/02/01 05:17:40;;;;;;;;;4.00;3.00;;;;;-147.17;100.00;-15917.19;4993817;28;51020;-69
2023/02/01 05:20:07;;;;;;;;;2.25;1.75;;;;;-147.17;100.00;-15917.19;4994846;28;51597;-69
2023/02/01 05:22:32;;;;;;;;;2.00;2.00;;;;;-147.17;100.00;-15917.19;4975123;28;51230;-69
2023/02/01 05:24:58;;;;;;;;;3.00;2.00;;;;;-147.17;100.00;-15917.19;4974922;28;52729;-69
2023/02/01 05:27:23;;;;;;;;;4.00;2.75;;;;;-147.17;100.00;-15917.19;4993129;28;51130;-69
2023/02/01 05:29:49;;;;;;;;;3.50;2.50;;;;;-147.17;100.00;-15917.19;4994339;28;51251;-70
2023/02/01 05:32:14;;;;;;;;;2.50;1.00;;;;;-147.17;100.00;-15917.19;4994645;28;51128;-69
2023/02/01 05:34:39;;;;;;;;;3.00;3.00;;;;;-147.17;100.00;-15917.19;4977067;28;52995;-69
2023/02/01 05:37:05;;;;;;;;;4.00;2.75;;;;;-147.17;100.00;-15917.19;4996217;28;51067;-70
2023/02/01 05:39:30;;;;;;;;;3.75;3.75;;;;;-147.17;100.00;-15917.19;4995580;28;51036;-69
2023/02/01 05:41:56;;;;;;;;;6.25;4.00;;;;;-147.17;100.00;-15917.19;4997916;28;51154;-68
2023/02/01 05:44:21;;;;;;;;;3.00;2.00;;;;;-147.17;100.00;-15917.19;4976272;28;51374;-69
2023/02/01 05:46:47;;;;;;;;;6.75;3.00;;;;;-147.17;100.00;-15917.19;4978602;28;51090;-69
2023/02/01 05:49:12;;;;;;;;;5.25;3.25;;;;;-147.17;100.00;-15917.19;4996219;28;51199;-70
2023/02/01 05:51:37;;;;;;;;;3.50;2.00;;;;;-147.17;100.00;-15917.19;4996109;28;51394;-70
2023/02/01 05:54:03;;;;;;;;;6.00;2.75;;;;;-147.17;100.00;-15917.19;4995100;28;51963;-69
2023/02/01 05:56:28;;;;;;;;;6.00;2.75;;;;;-147.17;100.00;-15917.19;5001792;28;51019;-71
2023/02/01 05:58:53;;;;;;;;;4.50;2.00;;;;;-147.17;100.00;-15917.19;4995049;28;51113;-71
2023/02/01 06:01:19;;;;;;;;;4.00;3.00;;;;;-147.17;100.00;-15917.19;5000569;28;51058;-71
2023/02/01 06:03:44;;;;;;;;;4.50;3.75;;;;;-147.17;100.00;-15917.19;4984101;28;53965;-69
2023/02/01 06:06:10;;;;;;;;;4.50;3.00;;;;;-147.17;100.00;-15917.19;4984814;28;51151;-69
2023/02/01 06:08:35;;;;;;;;;3.00;3.00;;;;;-147.17;100.00;-15917.19;4995608;28;51083;-70
2023/02/01 06:11:03;;;;;;;;;3.00;2.00;;;;;-147.17;100.00;-15917.19;4994884;28;50936;-69
2023/02/01 06:13:28;;;;;;;;;2.50;2.50;;;;;-147.17;100.00;-15917.19;4992291;28;52046;-70
2023/02/01 06:15:54;;;;;;;;;3.00;2.75;;;;;-147.17;100.00;-15917.19;4994229;28;50920;-68
2023/02/01 06:18:19;;;;;;;;;5.75;3.00;;;;;-147.17;100.00;-15917.19;4993859;28;51037;-71
2023/02/01 06:20:45;;;;;;;;;3.25;3.25;;;;;-147.17;100.00;-15917.19;4993720;28;51194;-70
2023/02/01 06:23:10;;;;;;;;;6.50;3.00;;;;;-147.17;100.00;-15917.19;4992664;28;51963;-69
2023/02/01 06:25:35;;;;;;;;;6.50;3.75;;;;;-147.17;100.00;-15917.19;4992871;28;51086;-71
2023/02/01 06:28:01;;;;;;;;;7.00;6.50;;;;;-147.17;100.00;-15917.19;4992380;28;51146;-69
2023/02/01 06:30:27;;;;;;;;;9.50;8.25;;;;;-147.17;100.00;-15917.19;4993137;28;51059;-70
2023/02/01 06:32:53;;;;;;;;;4.00;3.75;;;;;-147.17;100.00;-15917.19;4987359;28;51624;-71
2023/02/01 06:35:19;;;;;;;;;3.00;1.00;;;;;-147.17;100.00;-15917.19;4992718;28;51065;-70
2023/02/01 06:37:45;;;;;;;;;9.75;9.00;;;;;-147.17;100.00;-15917.19;4992528;28;50865;-71
2023/02/01 06:40:11;;;;;;;;;11.50;8.75;;;;;-147.17;100.00;-15917.19;4992816;28;51030;-70
2023/02/01 06:42:36;;;;;;;;;6.00;4.75;;;;;-147.17;100.00;-15917.19;4992115;28;51187;-71
2023/02/01 06:45:02;;;;;;;;;2.50;1.75;;;;;-147.17;100.00;-15917.19;4992910;28;50984;-71
2023/02/01 06:47:28;;;;;;;;;5.25;3.00;;;;;-147.17;100.00;-15917.19;4991519;28;51149;-70
2023/02/01 06:49:53;;;;;;;;;4.75;3.75;;;;;-147.17;100.00;-15917.19;4990040;28;51176;-71
2023/02/01 06:52:18;;;;;;;;;5.25;4.00;;;;;-147.17;100.00;-15917.19;4991269;28;50988;-70
2023/02/01 06:54:43;;;;;;;;;4.75;4.75;;;;;-147.17;100.00;-15917.19;4989962;28;51198;-70
2023/02/01 06:57:09;;;;;;;;;3.75;3.00;;;;;-147.17;100.00;-15917.19;4994868;28;51427;-70
2023/02/01 06:59:34;;;;;;;;;8.00;6.75;;;;;-147.17;100.00;-15917.19;5000813;28;51635;-71
2023/02/01 07:02:00;;;;;;;;;3.00;3.00;;;;;-147.17;100.00;-15917.19;4987421;28;52024;-70
2023/02/01 07:04:25;;;;;;;;;6.25;5.75;;;;;-147.17;100.00;-15917.19;4977460;28;51178;-71
2023/02/01 07:06:50;;;;;;;;;2.00;2.00;;;;;-147.17;100.00;-15917.19;4991311;28;51046;-71
2023/02/01 07:09:16;;;;;;;;;2.75;2.50;;;;;-147.17;100.00;-15917.19;4992154;28;51305;-71
2023/02/01 07:11:43;;;;;;;;;4.00;2.75;;;;;-147.17;100.00;-15917.19;5006092;28;51886;-71
2023/02/01 07:14:10;;;;;;;;;7.25;4.00;;;;;-147.17;100.00;-15917.19;4996013;28;51289;-71
2023/02/01 07:16:35;;;;;;;;;3.75;3.00;;;;;-147.17;100.00;-15917.19;4995827;28;51072;-68
2023/02/01 07:19:01;;;;;;;;;5.50;3.25;;;;;-147.17;100.00;-15917.19;4993857;28;50948;-71
2023/02/01 07:21:27;;;;;;;;;4.75;4.00;;;;;-147.17;100.00;-15917.19;4992273;28;52215;-71
2023/02/01 07:23:53;;;;;;;;;6.00;2.00;;;;;-147.17;100.00;-15917.19;4992500;28;51083;-70
2023/02/01 07:26:18;;;;;;;;;4.00;4.00;;;;;-147.17;100.00;-15917.19;4993351;28;51187;-71
2023/02/01 07:28:44;;;;;;;;;3.25;3.25;;;;;-147.17;100.00;-15917.19;4993240;28;51412;-71
2023/02/01 07:31:15;;;;;;;;;3.00;3.00;;;;;-147.17;100.00;-15917.19;4992123;28;51248;-71
2023/02/01 07:33:41;;;;;;;;;5.75;3.50;;;;;-147.17;100.00;-15917.19;4992587;28;51026;-69
2023/02/01 07:36:11;;;;;;;;;3.00;3.00;;;;;-147.17;100.00;-15917.19;4988045;28;51046;-70
2023/02/01 07:38:44;;;;;;;;;4.75;2.00;;;;;-147.17;100.00;-15917.19;4984268;28;50975;-70
2023/02/01 07:41:10;;;;;;;;;3.75;3.00;;;;;-147.17;100.00;-15917.19;4993471;28;52450;-69
2023/02/01 07:43:35;;;;;;;;;6.75;6.00;;;;;-147.17;100.00;-15917.19;4995586;28;51084;-70
2023/02/01 07:46:03;;;;;;;;;6.25;5.50;;;;;-147.17;100.00;-15917.19;4995976;28;51116;-69
2023/02/01 07:48:30;;;;;;;;;9.50;7.50;;;;;-147.17;100.00;-15917.19;4978465;28;51079;-70
2023/02/01 07:51:01;;;;;;;;;7.75;4.00;;;;;-147.17;100.00;-15917.19;4978063;28;52079;-71
2023/02/01 07:53:28;;;;;;;;;5.75;5.75;;;;;-147.17;100.00;-15917.19;4994934;28;51323;-70
2023/02/01 07:56:00;;;;;;;;;4.00;4.00;;;;;-147.17;100.00;-15917.19;4978473;28;51159;-71
2023/02/01 07:58:28;;;;;;;;;5.50;3.00;;;;;-147.17;100.00;-15917.19;5008353;28;51191;-71
2023/02/01 08:03:39;;;;;;;;;3.00;2.50;;;;;-147.17;100.00;-15917.19;4995366;28;51027;-70
2023/02/01 08:06:06;;;;;;;;;3.50;2.75;;;;;-147.17;100.00;-15917.19;4995517;28;51214;-70
2023/02/01 08:08:32;;;;;;;;;7.50;6.00;;;;;-147.17;100.00;-15917.19;4961608;28;51084;-71
2023/02/01 08:10:59;;;;;;;;;8.00;6.00;;;;;-147.17;100.00;-15917.19;5003162;28;51055;-70
2023/02/01 08:13:24;;;;;;;;;5.50;4.50;;;;;-147.17;100.00;-15917.19;4997835;28;50932;-69
2023/02/01 08:15:50;;;;;;;;;4.50;4.25;;;;;-147.17;100.00;-15917.19;4979624;28;51435;-71
2023/02/01 08:18:17;;;;;;;;;3.50;3.50;;;;;-147.17;100.00;-15917.19;4996956;28;51102;-71
2023/02/01 08:20:45;;;;;;;;;5.25;3.50;;;;;-147.17;100.00;-15917.19;4995398;28;52087;-71
2023/02/01 08:23:11;;;;;;;;;11.00;9.25;;;;;-147.17;100.00;-15917.19;4994285;28;51045;-70
2023/02/01 08:25:36;;;;;;;;;4.50;4.50;;;;;-147.17;100.00;-15917.19;4994620;28;50968;-70
2023/02/01 08:28:03;;;;;;;;;4.00;4.00;;;;;-147.17;100.00;-15917.19;4987642;28;51108;-71
2023/02/01 08:30:28;;;;;;;;;8.50;5.75;;;;;-147.17;100.00;-15917.19;4985220;28;52777;-71
2023/02/01 08:32:53;;;;;;;;;7.75;7.25;;;;;-147.17;100.00;-15917.19;4991657;28;51101;-70
2023/02/01 08:35:19;;;;;;;;;4.00;3.00;;;;;-147.17;100.00;-15917.19;4993075;28;51519;-71
2023/02/01 08:37:44;;;;;;;;;7.25;6.00;;;;;-147.17;100.00;-15917.19;4991752;28;51241;-72
2023/02/01 08:40:10;;;;;;;;;5.50;4.00;;;;;-147.17;100.00;-15917.19;4992451;28;51333;-73
2023/02/01 08:42:51;;;;;;;;;4.00;4.00;;;;;-147.17;100.00;-15917.19;4981150;28;51146;-73
2023/02/01 08:45:21;;;;;;;;;4.75;3.50;;;;;-147.17;100.00;-15917.19;4994445;28;51304;-72
2023/02/01 08:47:47;;;;;;;;;7.00;5.00;;;;;-147.17;100.00;-15917.19;4995706;28;51044;-72
2023/02/01 08:50:13;;;;;;;;;9.75;8.50;;;;;-147.17;100.00;-15917.19;4997029;28;51114;-71
2023/02/01 08:52:38;;;;;;;;;3.67;3.00;;;;;-147.17;100.00;-15917.19;4990785;28;51113;-72
2023/02/01 08:55:05;;;;;;;;;4.00;3.00;;;;;-147.17;100.00;-15917.19;4986583;28;51165;-71
2023/02/01 08:57:30;;;;;;;;;8.75;7.50;;;;;-147.17;100.00;-15917.19;4990784;28;51137;-72
2023/02/01 08:59:56;;;;;;;;;3.75;3.50;;;;;-147.17;100.00;-15917.19;4993759;28;51839;-70
2023/02/01 09:02:21;;;;;;;;;5.50;4.25;;;;;-147.17;100.00;-15917.19;4994724;28;51016;-69
2023/02/01 09:04:47;;;;;;;;;7.00;7.00;;;;;-147.17;100.00;-15917.19;4981887;28;51363;-71
2023/02/01 09:07:13;;;;;;;;;4.75;4.00;;;;;-147.17;100.00;-15917.19;4993426;28;50975;-70
2023/02/01 09:09:39;;;;;;;;;5.00;5.00;;;;;-147.17;100.00;-15917.19;4994655;28;52051;-71
2023/02/01 09:12:04;;;;;;;;;5.00;4.50;;;;;-147.17;100.00;-15917.19;4989868;28;51432;-67
2023/02/01 09:14:30;;;;;;;;;4.25;3.75;;;;;-147.17;100.00;-15917.19;4994925;28;51041;-72
2023/02/01 09:16:56;;;;;;;;;6.00;4.75;;;;;-147.17;100.00;-15917.19;4986594;28;51140;-71
2023/02/01 09:19:22;;;;;;;;;6.50;3.25;;;;;-147.17;100.00;-15917.19;4993722;28;51959;-70
2023/02/01 09:21:47;;;;;;;;;8.00;7.00;;;;;-147.17;100.00;-15917.19;5006089;28;51084;-69
2023/02/01 09:24:14;;;;;;;;;9.00;6.25;;;;;-147.17;100.00;-15917.19;4978254;28;51100;-73
2023/02/01 09:26:39;;;;;;;;;3.25;3.25;;;;;-147.17;100.00;-15917.19;4977493;28;51140;-70
2023/02/01 09:29:12;;;;;;;;;7.75;5.50;;;;;-147.17;100.00;-15917.19;4965983;28;52339;-73
2023/02/01 09:31:38;;;;;;;;;4.25;3.75;;;;;-147.17;100.00;-15917.19;4995459;28;51045;-71
2023/02/01 09:34:04;;;;;;;;;7.00;6.25;;;;;-147.17;100.00;-15917.19;4994786;28;51348;-72
2023/02/01 09:36:30;;;;;;;;;9.00;7.00;;;;;-147.17;100.00;-15917.19;4994768;28;51273;-73
2023/02/01 09:38:55;;;;;;;;;5.75;5.00;;;;;-147.17;100.00;-15917.19;4994421;28;51728;-72
2023/02/01 09:41:51;;;;;;;;;8.50;5.75;;;;;-147.17;100.00;-15917.19;4993934;28;50979;-71
2023/02/01 09:44:55;;;;;;;;;4.33;4.33;;;;;-147.17;100.00;-15917.19;4993650;28;51243;-71
2023/02/01 09:47:24;;;;;;;;;5.50;5.00;;;;;-147.17;100.00;-15917.19;4992382;28;51225;-71
2023/02/01 09:50:22;;;;;;;;;3.00;3.00;;;;;-147.17;100.00;-15917.19;4976105;28;53603;-71
2023/02/01 09:52:55;;;;;;;;;6.00;3.00;;;;;-147.17;100.00;-15917.19;4983636;28;51017;-71
2023/02/01 09:55:58;;;;;;;;;6.50;6.50;;;;;-147.17;100.00;-15917.19;4993884;28;50976;-72
2023/02/01 09:58:35;;;;;;;;;9.50;4.75;;;;;-147.17;100.00;-15917.19;4972579;28;51356;-71
2023/02/01 10:01:02;;;;;;;;;8.50;8.00;;;;;-147.17;100.00;-15917.19;4980964;28;51089;-72
2023/02/01 10:03:31;;;;;;;;;8.75;8.75;;;;;-147.17;100.00;-15917.19;4992584;28;51082;-72
2023/02/01 10:06:13;;;;;;;;;5.50;5.00;;;;;-147.17;100.00;-15917.19;4992476;28;51119;-71
2023/02/01 10:09:04;;;;;;;;;4.50;3.50;;;;;-147.17;100.00;-15917.19;4990577;28;51160;-72
2023/02/01 10:11:50;;;;;;;;;3.50;3.50;;;;;-147.17;100.00;-15917.19;4992830;28;50893;-71
2023/02/01 10:15:06;;;;;;;;;5.75;4.75;;;;;-147.17;100.00;-15917.19;4992650;28;51164;-72
2023/02/01 10:17:45;;;;;;;;;5.50;5.00;;;;;-147.17;100.00;-15917.19;4962803;28;51368;-72
2023/02/01 10:20:26;;;;;;;;;7.75;5.00;;;;;-147.17;100.00;-15917.19;4991692;28;51166;-70
2023/02/01 10:22:54;;;;;;;;;5.00;5.00;;;;;-147.17;100.00;-15917.19;4993709;28;51059;-70
2023/02/01 10:25:35;;;;;;;;;4.50;3.75;;;;;-147.17;100.00;-15917.19;4996517;28;50881;-71
2023/02/01 10:28:03;;;;;;;;;9.00;8.50;;;;;-147.17;100.00;-15917.19;4978376;28;51277;-72
2023/02/01 10:30:42;;;;;;;;;8.75;6.75;;;;;-147.17;100.00;-15917.19;4979806;28;51300;-72
2023/02/01 10:33:21;;;;;;;;;4.75;4.25;;;;;-147.17;100.00;-15917.19;4994012;28;51254;-71
2023/02/01 10:35:58;;;;;;;;;3.75;3.50;;;;;-147.17;100.00;-15917.19;4993820;28;51095;-70
2023/02/01 10:38:27;;;;;;;;;5.00;5.00;;;;;-147.17;100.00;-15917.19;4994924;28;51141;-71
2023/02/01 10:40:58;;;;;;;;;5.00;5.00;;;;;-147.17;100.00;-15917.19;4982881;28;51346;-71
2023/02/01 10:43:24;;;;;;;;;3.00;3.00;;;;;-147.17;100.00;-15917.19;4994692;28;51715;-70
2023/02/01 10:45:50;;;;;;;;;6.50;5.25;;;;;-147.17;100.00;-15917.19;4976211;28;51021;-71
2023/02/01 10:48:15;;;;;;;;;6.50;5.25;;;;;-147.17;100.00;-15917.19;4992996;28;50917;-71
2023/02/01 10:50:50;;;;;;;;;6.00;6.00;;;;;-147.17;100.00;-15917.19;4992992;28;51271;-70
2023/02/01 10:53:24;;;;;;;;;7.75;3.75;;;;;-147.17;100.00;-15917.19;4992010;28;52278;-71
2023/02/01 10:55:54;;;;;;;;;9.25;8.00;;;;;-147.17;100.00;-15917.19;4992766;28;50928;-70
2023/02/01 10:58:28;;;;;;;;;9.00;7.75;;;;;-147.17;100.00;-15917.19;4992912;28;51198;-71
2023/02/01 11:01:02;;;;;;;;;5.50;4.25;;;;;-147.17;100.00;-15917.19;4996313;28;50929;-70
2023/02/01 11:03:30;;;;;;;;;9.50;7.25;;;;;-147.17;100.00;-15917.19;4992183;28;52359;-70
2023/02/01 11:05:56;;;;;;;;;6.00;4.67;;;;;-147.17;100.00;-15917.19;4992137;28;51094;-69
2023/02/01 11:08:25;;;;;;;;;6.00;4.00;;;;;-147.17;100.00;-15917.19;4991337;28;51127;-69
2023/02/01 11:11:05;;;;;;;;;9.00;6.50;;;;;-147.17;100.00;-15917.19;4983209;28;51414;-69
2023/02/01 11:13:36;;;;;;;;;7.33;5.00;;;;;-147.17;100.00;-15917.19;4992181;28;51263;-71
2023/02/01 11:16:04;;;;;;;;;14.25;11.25;;;;;-147.17;100.00;-15917.19;4976204;28;50929;-69
2023/02/01 11:18:35;;;;;;;;;6.00;4.67;;;;;-147.17;100.00;-15917.19;4978172;28;51093;-69
2023/02/01 11:21:01;;;;;;;;;5.00;4.00;;;;;-147.17;100.00;-15917.19;4978586;28;51241;-71
2023/02/01 11:23:29;;;;;;;;;8.33;6.00;;;;;-147.17;100.00;-15917.19;4994469;28;51338;-68
2023/02/01 11:26:00;;;;;;;;;10.33;8.67;;;;;-147.17;100.00;-15917.19;4995023;28;51323;-71
2023/02/01 11:28:29;;;;;;;;;7.00;5.00;;;;;-147.17;100.00;-15917.19;4994810;28;51031;-71
2023/02/01 11:30:59;;;;;;;;;8.67;7.00;;;;;-147.17;100.00;-15917.19;4995310;28;51180;-69
2023/02/01 11:33:31;;;;;;;;;5.00;5.00;;;;;-147.17;100.00;-15917.19;4995018;28;51114;-70
2023/02/01 11:35:58;;;;;;;;;7.33;5.67;;;;;-147.17;100.00;-15917.19;4977688;28;51116;-71